createdAt,value
2023-04-23T00:01:17.768Z,100306.00
2023-04-23T00:03:45.109Z,100309.00
2023-04-23T00:06:13.029Z,100313.00
2023-04-23T00:08:42.073Z,100311.00
2023-04-23T00:11:10.521Z,100309.00
2023-04-23T00:13:37.737Z,100303.00
2023-04-23T00:16:05.209Z,100307.00
2023-04-23T00:18:32.366Z,100314.00
2023-04-23T00:20:59.179Z,100295.00
2023-04-23T00:23:26.096Z,100290.00
2023-04-23T00:25:52.869Z,100297.00
2023-04-23T00:28:22.002Z,100299.00
2023-04-23T00:30:49.062Z,100293.00
2023-04-23T00:33:15.956Z,100294.00
2023-04-23T00:35:42.737Z,100280.00
2023-04-23T00:38:09.636Z,100291.00
2023-04-23T00:40:36.601Z,100288.00
2023-04-23T00:43:04.057Z,100287.00
2023-04-23T00:45:30.916Z,100287.00
2023-04-23T00:47:58.928Z,100276.00
2023-04-23T00:50:26.281Z,100275.00
2023-04-23T00:52:53.042Z,100277.00
2023-04-23T00:55:22.938Z,100272.00
2023-04-23T00:57:50.645Z,100277.00
2023-04-23T01:00:18.714Z,100279.00
2023-04-23T01:02:48.437Z,100279.00
2023-04-23T01:05:17.991Z,100267.00
2023-04-23T01:07:46.597Z,100273.00
2023-04-23T01:10:13.884Z,100270.00
2023-04-23T01:12:40.664Z,100268.00
2023-04-23T01:15:08.880Z,100271.00
2023-04-23T01:17:35.847Z,100267.00
2023-04-23T01:20:03.035Z,100264.00
2023-04-23T01:22:29.873Z,100270.00
2023-04-23T01:24:57.324Z,100265.00
2023-04-23T01:27:24.955Z,100273.00
2023-04-23T01:29:52.065Z,100271.00
2023-04-23T01:32:19.636Z,100274.00
2023-04-23T01:34:48.024Z,100271.00
2023-04-23T01:37:16.736Z,100267.00
2023-04-23T01:39:43.655Z,100267.00
2023-04-23T01:42:11.112Z,100272.00
2023-04-23T01:44:38.028Z,100268.00
2023-04-23T01:47:06.949Z,100256.00
2023-04-23T01:49:34.237Z,100259.00
2023-04-23T01:52:01.004Z,100270.00
2023-04-23T01:54:27.891Z,100262.00
2023-04-23T01:56:55.751Z,100261.00
2023-04-23T01:59:22.921Z,100256.00
2023-04-23T02:01:50.637Z,100262.00
2023-04-23T02:04:18.509Z,100262.00
2023-04-23T02:06:49.518Z,100258.00
2023-04-23T02:09:16.830Z,100257.00
2023-04-23T02:11:43.843Z,100264.00
2023-04-23T02:14:11.427Z,100253.00
2023-04-23T02:16:38.531Z,100241.00
2023-04-23T02:19:05.776Z,100262.00
2023-04-23T02:21:32.506Z,100247.00
2023-04-23T02:23:59.405Z,100247.00
2023-04-23T02:26:26.261Z,100243.00
2023-04-23T02:28:53.105Z,100242.00
2023-04-23T02:31:20.860Z,100239.00
2023-04-23T02:33:47.817Z,100239.00
2023-04-23T02:36:14.911Z,100253.00
2023-04-23T02:38:42.537Z,100244.00
2023-04-23T02:41:09.384Z,100253.00
2023-04-23T02:43:36.120Z,100242.00
2023-04-23T02:46:08.574Z,100244.00
2023-04-23T02:48:41.489Z,100244.00
2023-04-23T02:51:13.160Z,100232.00
2023-04-23T02:53:39.984Z,100229.00
2023-04-23T02:56:07.286Z,100237.00
2023-04-23T02:58:34.370Z,100234.00
2023-04-23T03:01:01.612Z,100226.00
2023-04-23T03:03:31.820Z,100239.00
2023-04-23T03:06:01.414Z,100225.00
2023-04-23T03:08:28.409Z,100227.00
2023-04-23T03:10:55.182Z,100227.00
2023-04-23T03:13:21.981Z,100218.00
2023-04-23T03:15:49.759Z,100223.00
2023-04-23T03:18:16.524Z,100233.00
2023-04-23T03:20:43.345Z,100226.00
2023-04-23T03:23:10.182Z,100231.00
2023-04-23T03:25:36.922Z,100237.00
2023-04-23T03:28:03.655Z,100242.00
2023-04-23T03:30:31.197Z,100237.00
2023-04-23T03:32:58.422Z,100237.00
2023-04-23T03:35:26.382Z,100233.00
2023-04-23T03:37:53.189Z,100230.00
2023-04-23T03:40:21.053Z,100222.00
2023-04-23T03:42:48.334Z,100220.00
2023-04-23T03:45:16.866Z,100223.00
2023-04-23T03:47:43.942Z,100221.00
2023-04-23T03:50:13.187Z,100224.00
2023-04-23T03:52:40.606Z,100225.00
2023-04-23T03:55:08.034Z,100219.00
2023-04-23T03:57:36.168Z,100218.00
2023-04-23T04:00:08.178Z,100206.00
2023-04-23T04:02:35.130Z,100201.00
2023-04-23T04:05:02.131Z,100206.00
2023-04-23T04:07:29.592Z,100204.00
2023-04-23T04:09:56.335Z,100199.00
2023-04-23T04:12:23.229Z,100192.00
2023-04-23T04:14:50.407Z,100196.00
2023-04-23T04:17:17.472Z,100201.00
2023-04-23T04:19:44.365Z,100205.00
2023-04-23T04:22:11.188Z,100201.00
2023-04-23T04:24:38.101Z,100206.00
2023-04-23T04:27:06.145Z,100206.00
2023-04-23T04:29:33.409Z,100210.00
2023-04-23T04:32:01.308Z,100201.00
2023-04-23T04:34:28.609Z,100203.00
2023-04-23T04:36:55.728Z,100201.00
2023-04-23T04:39:22.488Z,100207.00
2023-04-23T04:41:49.398Z,100215.00
2023-04-23T04:44:16.577Z,100226.00
2023-04-23T04:46:43.497Z,100219.00
2023-04-23T04:49:11.850Z,100216.00
2023-04-23T04:51:40.903Z,100225.00
2023-04-23T04:54:08.348Z,100212.00
2023-04-23T04:56:35.389Z,100213.00
2023-04-23T04:59:02.598Z,100218.00
2023-04-23T05:01:30.907Z,100206.00
2023-04-23T05:03:58.224Z,100222.00
2023-04-23T05:06:25.594Z,100226.00
2023-04-23T05:08:52.357Z,100230.00
2023-04-23T05:11:20.957Z,100234.00
2023-04-23T05:13:48.746Z,100239.00
2023-04-23T05:16:15.926Z,100225.00
2023-04-23T05:18:42.779Z,100231.00
2023-04-23T05:21:09.749Z,100227.00
2023-04-23T05:23:36.895Z,100224.00
2023-04-23T05:26:04.055Z,100227.00
2023-04-23T05:28:31.488Z,100232.00
2023-04-23T05:30:58.512Z,100233.00
2023-04-23T05:33:30.693Z,100235.00
2023-04-23T05:36:00.261Z,100229.00
2023-04-23T05:38:27.118Z,100239.00
2023-04-23T05:40:53.843Z,100229.00
2023-04-23T05:43:20.561Z,100238.00
2023-04-23T05:45:47.374Z,100245.00
2023-04-23T05:48:14.189Z,100238.00
2023-04-23T05:50:41.093Z,100250.00
2023-04-23T05:53:08.209Z,100242.00
2023-04-23T05:55:34.928Z,100238.00
2023-04-23T05:58:02.459Z,100247.00
2023-04-23T06:00:29.340Z,100243.00
2023-04-23T06:02:56.409Z,100246.00
2023-04-23T06:05:23.592Z,100244.00
2023-04-23T06:07:50.526Z,100239.00
2023-04-23T06:10:17.337Z,100249.00
2023-04-23T06:12:44.371Z,100250.00
2023-04-23T06:15:11.633Z,100245.00
2023-04-23T06:17:39.015Z,100246.00
2023-04-23T06:20:08.970Z,100244.00
2023-04-23T06:22:35.927Z,100248.00
2023-04-23T06:25:02.724Z,100250.00
2023-04-23T06:27:29.729Z,100251.00
2023-04-23T06:29:57.044Z,100248.00
2023-04-23T06:32:23.871Z,100248.00
2023-04-23T06:35:00.884Z,100248.00
2023-04-23T06:37:30.763Z,100246.00
2023-04-23T06:39:58.912Z,100239.00
2023-04-23T06:42:25.981Z,100259.00
2023-04-23T06:44:53.045Z,100256.00
2023-04-23T06:47:20.030Z,100252.00
2023-04-23T06:49:46.804Z,100254.00
2023-04-23T06:52:13.570Z,100254.00
2023-04-23T06:54:40.849Z,100252.00
2023-04-23T06:57:07.742Z,100252.00
2023-04-23T06:59:34.614Z,100246.00
2023-04-23T07:02:01.478Z,100244.00
2023-04-23T07:04:28.260Z,100248.00
2023-04-23T07:06:55.328Z,100255.00
2023-04-23T07:09:23.096Z,100269.00
2023-04-23T07:11:49.935Z,100265.00
2023-04-23T07:14:16.826Z,100261.00
2023-04-23T07:16:43.815Z,100273.00
2023-04-23T07:19:10.872Z,100273.00
2023-04-23T07:21:37.659Z,100263.00
2023-04-23T07:24:06.884Z,100271.00
2023-04-23T07:26:35.635Z,100265.00
2023-04-23T07:29:04.055Z,100275.00
2023-04-23T07:31:31.045Z,100285.00
2023-04-23T07:33:57.890Z,100274.00
2023-04-23T07:36:25.745Z,100283.00
2023-04-23T07:38:52.516Z,100276.00
2023-04-23T07:41:19.292Z,100278.00
2023-04-23T07:43:46.158Z,100274.00
2023-04-23T07:46:13.195Z,100286.00
2023-04-23T07:48:39.908Z,100278.00
2023-04-23T07:51:08.916Z,100280.00
2023-04-23T07:53:35.727Z,100284.00
2023-04-23T07:56:02.541Z,100281.00
2023-04-23T07:58:29.460Z,100278.00
2023-04-23T08:00:56.280Z,100284.00
2023-04-23T08:03:23.743Z,100285.00
2023-04-23T08:05:51.072Z,100287.00
2023-04-23T08:08:17.821Z,100285.00
2023-04-23T08:10:45.367Z,100288.00
2023-04-23T08:13:12.272Z,100278.00
2023-04-23T08:15:39.013Z,100295.00
2023-04-23T08:18:06.083Z,100294.00
2023-04-23T08:20:32.998Z,100284.00
2023-04-23T08:22:59.880Z,100282.00
2023-04-23T08:25:26.711Z,100282.00
2023-04-23T08:27:53.609Z,100274.00
2023-04-23T08:30:20.663Z,100274.00
2023-04-23T08:32:53.855Z,100289.00
2023-04-23T08:35:21.501Z,100288.00
2023-04-23T08:37:48.240Z,100287.00
2023-04-23T08:40:15.702Z,100277.00
2023-04-23T08:43:10.426Z,100281.00
2023-04-23T08:45:41.650Z,100278.00
2023-04-23T08:48:10.397Z,100287.00
2023-04-23T08:50:41.453Z,100276.00
2023-04-23T08:53:09.192Z,100280.00
2023-04-23T08:55:36.612Z,100292.00
2023-04-23T08:58:06.325Z,100288.00
2023-04-23T09:00:36.513Z,100285.00
2023-04-23T09:03:04.250Z,100285.00
2023-04-23T09:05:31.487Z,100287.00
2023-04-23T09:07:59.731Z,100291.00
2023-04-23T09:10:26.576Z,100286.00
2023-04-23T09:12:53.388Z,100297.00
2023-04-23T09:15:20.241Z,100293.00
2023-04-23T09:17:49.705Z,100288.00
2023-04-23T09:20:16.590Z,100288.00
2023-04-23T09:22:49.832Z,100290.00
2023-04-23T09:25:20.017Z,100296.00
2023-04-23T09:27:50.707Z,100306.00
2023-04-23T09:30:18.832Z,100311.00
2023-04-23T09:32:46.689Z,100311.00
2023-04-23T09:35:16.690Z,100310.00
2023-04-23T09:37:51.837Z,100307.00
2023-04-23T09:40:24.800Z,100318.00
2023-04-23T09:42:54.682Z,100326.00
2023-04-23T09:45:22.282Z,100316.00
2023-04-23T09:47:54.015Z,100321.00
2023-04-23T09:50:38.340Z,100334.00
2023-04-23T09:53:07.146Z,100332.00
2023-04-23T09:55:39.933Z,100330.00
2023-04-23T09:58:12.783Z,100325.00
2023-04-23T10:00:40.869Z,100334.00
2023-04-23T10:03:09.996Z,100337.00
2023-04-23T10:05:56.305Z,100344.00
2023-04-23T10:08:28.269Z,100338.00
2023-04-23T10:11:06.690Z,100339.00
2023-04-23T10:13:41.406Z,100343.00
2023-04-23T10:16:21.244Z,100346.00
2023-04-23T10:18:52.428Z,100347.00
2023-04-23T10:21:20.330Z,100360.00
2023-04-23T10:23:51.079Z,100358.00
2023-04-23T10:26:22.386Z,100363.00
2023-04-23T10:28:54.683Z,100361.00
2023-04-23T10:31:22.939Z,100365.00
2023-04-23T10:33:58.661Z,100360.00
2023-04-23T10:36:27.714Z,100351.00
2023-04-23T10:38:59.121Z,100358.00
2023-04-23T10:41:37.149Z,100349.00
2023-04-23T10:44:06.067Z,100344.00
2023-04-23T10:46:36.367Z,100345.00
2023-04-23T10:49:17.091Z,100348.00
2023-04-23T10:54:19.948Z,100344.00
2023-04-23T10:56:58.735Z,100342.00
2023-04-23T10:59:25.680Z,100343.00
2023-04-23T11:01:52.784Z,100349.00
2023-04-23T11:04:24.639Z,100355.00
2023-04-23T11:06:55.583Z,100348.00
2023-04-23T11:09:48.464Z,100343.00
2023-04-23T11:12:21.095Z,100359.00
2023-04-23T11:14:50.104Z,100352.00
2023-04-23T11:17:22.704Z,100358.00
2023-04-23T11:20:10.298Z,100350.00
2023-04-23T11:22:53.425Z,100354.00
2023-04-23T11:25:24.809Z,100358.00
2023-04-23T11:27:54.163Z,100348.00
2023-04-23T11:30:30.157Z,100345.00
2023-04-23T11:32:59.833Z,100344.00
2023-04-23T11:35:37.811Z,100354.00
2023-04-23T11:38:09.581Z,100353.00
2023-04-23T11:40:36.505Z,100363.00
2023-04-23T11:43:04.238Z,100359.00
2023-04-23T11:45:30.997Z,100350.00
2023-04-23T11:48:00.787Z,100359.00
2023-04-23T11:50:33.930Z,100356.00
2023-04-23T11:53:11.298Z,100347.00
2023-04-23T11:55:38.855Z,100340.00
2023-04-23T11:58:05.798Z,100337.00
2023-04-23T12:00:32.575Z,100354.00
2023-04-23T12:03:02.269Z,100358.00
2023-04-23T12:05:39.059Z,100357.00
2023-04-23T12:08:20.413Z,100350.00
2023-04-23T12:10:52.306Z,100351.00
2023-04-23T12:13:32.147Z,100344.00
2023-04-23T12:16:04.597Z,100356.00
2023-04-23T12:18:42.174Z,100364.00
2023-04-23T12:21:12.321Z,100351.00
2023-04-23T12:23:44.987Z,100362.00
2023-04-23T12:26:15.383Z,100365.00
2023-04-23T12:28:56.766Z,100374.00
2023-04-23T12:31:27.898Z,100364.00
2023-04-23T12:34:04.691Z,100373.00
2023-04-23T12:36:32.675Z,100365.00
2023-04-23T12:39:25.548Z,100374.00
2023-04-23T12:41:55.488Z,100367.00
2023-04-23T12:44:22.688Z,100365.00
2023-04-23T12:47:03.296Z,100361.00
2023-04-23T12:49:31.116Z,100357.00
2023-04-23T12:52:02.651Z,100361.00
2023-04-23T12:54:37.548Z,100355.00
2023-04-23T12:57:07.234Z,100361.00
2023-04-23T12:59:34.370Z,100363.00
2023-04-23T13:02:02.705Z,100352.00
2023-04-23T13:04:36.713Z,100356.00
2023-04-23T13:07:04.074Z,100345.00
2023-04-23T13:09:30.929Z,100340.00
2023-04-23T13:11:59.855Z,100342.00
2023-04-23T13:14:27.194Z,100344.00
2023-04-23T13:16:54.148Z,100340.00
2023-04-23T13:19:20.992Z,100338.00
2023-04-23T13:21:47.740Z,100334.00
2023-04-23T13:24:14.507Z,100325.00
2023-04-23T13:26:41.795Z,100332.00
2023-04-23T13:29:08.552Z,100326.00
2023-04-23T13:31:38.169Z,100325.00
2023-04-23T13:34:05.103Z,100335.00
2023-04-23T13:36:34.851Z,100330.00
2023-04-23T13:39:01.618Z,100323.00
2023-04-23T13:41:29.071Z,100326.00
2023-04-23T13:43:55.971Z,100313.00
2023-04-23T13:46:22.730Z,100321.00
2023-04-23T13:48:55.743Z,100305.00
2023-04-23T13:51:34.185Z,100305.00
2023-04-23T13:54:02.455Z,100309.00
2023-04-23T13:56:30.566Z,100296.00
2023-04-23T14:01:32.141Z,100310.00
2023-04-23T14:03:59.031Z,100306.00
2023-04-23T14:06:27.895Z,100305.00
2023-04-23T14:08:54.845Z,100306.00
2023-04-23T14:11:22.538Z,100303.00
2023-04-23T14:13:49.292Z,100296.00
2023-04-23T14:16:17.425Z,100308.00
2023-04-23T14:18:44.275Z,100301.00
2023-04-23T14:21:11.111Z,100290.00
2023-04-23T14:23:56.317Z,100289.00
2023-04-23T14:26:47.363Z,100296.00
2023-04-23T14:29:41.316Z,100292.00
2023-04-23T14:32:08.561Z,100286.00
2023-04-23T14:34:35.800Z,100275.00
2023-04-23T14:37:03.938Z,100273.00
2023-04-23T14:39:30.878Z,100267.00
2023-04-23T14:41:57.629Z,100277.00
2023-04-23T14:44:26.402Z,100267.00
2023-04-23T14:46:53.341Z,100258.00
2023-04-23T14:49:23.525Z,100261.00
2023-04-23T14:51:54.598Z,100268.00
2023-04-23T14:54:24.803Z,100263.00
2023-04-23T14:56:52.137Z,100262.00
2023-04-23T14:59:19.101Z,100261.00
2023-04-23T15:01:46.079Z,100271.00
2023-04-23T15:04:13.074Z,100256.00
2023-04-23T15:06:42.955Z,100247.00
2023-04-23T15:09:09.681Z,100249.00
2023-04-23T15:11:38.810Z,100250.00
2023-04-23T15:14:16.302Z,100255.00
2023-04-23T15:16:48.834Z,100250.00
2023-04-23T15:19:20.655Z,100243.00
2023-04-23T15:21:48.328Z,100237.00
2023-04-23T15:24:16.484Z,100237.00
2023-04-23T15:26:45.603Z,100246.00
2023-04-23T15:29:13.505Z,100231.00
2023-04-23T15:31:40.852Z,100225.00
2023-04-23T15:34:09.207Z,100232.00
2023-04-23T15:36:37.695Z,100224.00
2023-04-23T15:39:05.029Z,100228.00
2023-04-23T15:41:31.924Z,100228.00
2023-04-23T15:43:58.757Z,100220.00
2023-04-23T15:46:25.616Z,100220.00
2023-04-23T15:48:52.365Z,100230.00
2023-04-23T15:51:19.124Z,100220.00
2023-04-23T15:53:45.867Z,100222.00
2023-04-23T15:56:12.777Z,100227.00
2023-04-23T15:58:39.544Z,100224.00
2023-04-23T16:01:07.271Z,100219.00
2023-04-23T16:03:34.782Z,100219.00
2023-04-23T16:06:01.852Z,100216.00
2023-04-23T16:08:28.600Z,100214.00
2023-04-23T16:10:57.079Z,100208.00
2023-04-23T16:13:24.999Z,100210.00
2023-04-23T16:15:51.886Z,100204.00
2023-04-23T16:18:18.713Z,100207.00
2023-04-23T16:20:45.528Z,100198.00
2023-04-23T16:23:12.401Z,100197.00
2023-04-23T16:25:39.400Z,100197.00
2023-04-23T16:28:06.467Z,100188.00
2023-04-23T16:30:33.544Z,100181.00
2023-04-23T16:33:00.354Z,100187.00
2023-04-23T16:35:27.758Z,100182.00
2023-04-23T16:37:54.539Z,100172.00
2023-04-23T16:40:21.522Z,100184.00
2023-04-23T16:42:48.827Z,100177.00
2023-04-23T16:45:15.841Z,100179.00
2023-04-23T16:47:45.424Z,100173.00
2023-04-23T16:50:12.318Z,100163.00
2023-04-23T16:52:39.121Z,100172.00
2023-04-23T16:55:06.263Z,100175.00
2023-04-23T16:57:34.853Z,100171.00
2023-04-23T17:00:01.691Z,100181.00
2023-04-23T17:02:28.623Z,100179.00
2023-04-23T17:04:55.670Z,100169.00
2023-04-23T17:07:22.638Z,100168.00
2023-04-23T17:09:49.448Z,100159.00
2023-04-23T17:12:16.566Z,100156.00
2023-04-23T17:14:43.538Z,100160.00
2023-04-23T17:17:10.580Z,100154.00
2023-04-23T17:19:37.354Z,100160.00
2023-04-23T17:22:06.241Z,100151.00
2023-04-23T17:24:33.152Z,100159.00
2023-04-23T17:26:59.997Z,100155.00
2023-04-23T17:29:26.848Z,100147.00
2023-04-23T17:31:53.709Z,100148.00
2023-04-23T17:34:20.557Z,100148.00
2023-04-23T17:36:47.276Z,100134.00
2023-04-23T17:39:14.076Z,100143.00
2023-04-23T17:41:40.800Z,100132.00
2023-04-23T17:44:07.553Z,100143.00
2023-04-23T17:46:34.420Z,100137.00
2023-04-23T17:49:01.561Z,100136.00
2023-04-23T17:51:28.431Z,100134.00
2023-04-23T17:53:55.267Z,100139.00
2023-04-23T17:56:22.053Z,100141.00
2023-04-23T17:58:48.809Z,100142.00
2023-04-23T18:01:17.631Z,100136.00
2023-04-23T18:03:45.051Z,100131.00
2023-04-23T18:06:12.220Z,100136.00
2023-04-23T18:08:41.195Z,100135.00
2023-04-23T18:11:09.295Z,100134.00
2023-04-23T18:13:36.410Z,100145.00
2023-04-23T18:16:03.679Z,100140.00
2023-04-23T18:18:30.563Z,100148.00
2023-04-23T18:20:57.432Z,100151.00
2023-04-23T18:23:26.114Z,100152.00
2023-04-23T18:25:53.375Z,100146.00
2023-04-23T18:28:20.097Z,100145.00
2023-04-23T18:30:46.989Z,100149.00
2023-04-23T18:33:32.799Z,100152.00
2023-04-23T18:36:09.180Z,100154.00
2023-04-23T18:38:43.204Z,100160.00
2023-04-23T18:41:10.048Z,100162.00
2023-04-23T18:43:36.857Z,100170.00
2023-04-23T18:46:03.938Z,100165.00
2023-04-23T18:48:33.805Z,100162.00
2023-04-23T18:51:19.712Z,100168.00
2023-04-23T18:53:47.127Z,100171.00
2023-04-23T18:56:14.117Z,100162.00
2023-04-23T18:58:40.911Z,100154.00
2023-04-23T19:01:07.903Z,100156.00
2023-04-23T19:03:34.922Z,100155.00
2023-04-23T19:06:07.126Z,100155.00
2023-04-23T19:08:35.487Z,100161.00
2023-04-23T19:11:02.947Z,100152.00
2023-04-23T19:13:29.864Z,100145.00
2023-04-23T19:15:56.879Z,100144.00
2023-04-23T19:18:24.142Z,100157.00
2023-04-23T19:20:52.439Z,100161.00
2023-04-23T19:23:19.971Z,100146.00
2023-04-23T19:25:47.013Z,100159.00
2023-04-23T19:28:13.823Z,100158.00
2023-04-23T19:30:40.649Z,100152.00
2023-04-23T19:33:07.531Z,100155.00
2023-04-23T19:35:34.318Z,100146.00
2023-04-23T19:38:01.090Z,100152.00
2023-04-23T19:40:27.860Z,100146.00
2023-04-23T19:42:54.629Z,100144.00
2023-04-23T19:45:21.952Z,100139.00
2023-04-23T19:47:48.719Z,100138.00
2023-04-23T19:50:16.058Z,100131.00
2023-04-23T19:52:42.958Z,100129.00
2023-04-23T19:55:09.968Z,100126.00
2023-04-23T19:57:36.788Z,100122.00
2023-04-23T20:00:13.344Z,100118.00
2023-04-23T20:02:43.399Z,100128.00
2023-04-23T20:05:10.572Z,100127.00
2023-04-23T20:07:38.514Z,100125.00
2023-04-23T20:10:06.007Z,100123.00
2023-04-23T20:12:33.368Z,100123.00
2023-04-23T20:15:00.309Z,100117.00
2023-04-23T20:17:27.571Z,100118.00
2023-04-23T20:19:55.023Z,100116.00
2023-04-23T20:22:21.776Z,100117.00
2023-04-23T20:24:48.960Z,100097.00
2023-04-23T20:27:16.236Z,100104.00
2023-04-23T20:29:43.150Z,100100.00
2023-04-23T20:32:10.084Z,100103.00
2023-04-23T20:34:36.848Z,100110.00
2023-04-23T20:37:03.715Z,100102.00
2023-04-23T20:39:30.495Z,100105.00
2023-04-23T20:42:00.776Z,100096.00
2023-04-23T20:44:28.099Z,100095.00
2023-04-23T20:46:57.721Z,100099.00
2023-04-23T20:49:27.425Z,100096.00
2023-04-23T20:51:54.170Z,100097.00
2023-04-23T20:54:20.918Z,100082.00
2023-04-23T20:56:47.709Z,100085.00
2023-04-23T20:59:14.558Z,100082.00
2023-04-23T21:01:41.403Z,100084.00
2023-04-23T21:04:08.398Z,100056.00
2023-04-23T21:06:35.512Z,100069.00
2023-04-23T21:09:02.235Z,100053.00
2023-04-23T21:11:29.566Z,100057.00
2023-04-23T21:13:57.305Z,100055.00
2023-04-23T21:16:25.289Z,100060.00
2023-04-23T21:18:52.169Z,100058.00
2023-04-23T21:21:18.953Z,100052.00
2023-04-23T21:23:46.625Z,100041.00
2023-04-23T21:26:13.361Z,100045.00
2023-04-23T21:28:40.220Z,100031.00
2023-04-23T21:31:17.641Z,100031.00
2023-04-23T21:33:44.395Z,100024.00
2023-04-23T21:36:11.185Z,100022.00
2023-04-23T21:38:37.973Z,100022.00
2023-04-23T21:41:04.848Z,100025.00
2023-04-23T21:43:35.359Z,100024.00
2023-04-23T21:46:02.410Z,100024.00
2023-04-23T21:48:31.242Z,100021.00
2023-04-23T21:50:58.095Z,100007.00
2023-04-23T21:53:25.091Z,100011.00
2023-04-23T21:55:51.832Z,99999.00
2023-04-23T21:58:18.841Z,99999.00
2023-04-23T22:00:46.241Z,100003.00
2023-04-23T22:03:26.148Z,100013.00
2023-04-23T22:06:02.740Z,100011.00
2023-04-23T22:08:33.726Z,100008.00
2023-04-23T22:11:00.637Z,100009.00
2023-04-23T22:13:27.438Z,100023.00
2023-04-23T22:15:56.828Z,100018.00
2023-04-23T22:18:23.562Z,100017.00
2023-04-23T22:20:50.964Z,100031.00
2023-04-23T22:23:17.717Z,100026.00
2023-04-23T22:25:44.908Z,100022.00
2023-04-23T22:28:12.176Z,100024.00
2023-04-23T22:30:39.013Z,100025.00
2023-04-23T22:33:06.167Z,100027.00
2023-04-23T22:35:33.107Z,100018.00
2023-04-23T22:38:00.342Z,100021.00
2023-04-23T22:40:27.155Z,100011.00
2023-04-23T22:42:53.943Z,100009.00
2023-04-23T22:45:20.861Z,100021.00
2023-04-23T22:47:48.236Z,100012.00
2023-04-23T22:50:15.135Z,100009.00
2023-04-23T22:52:42.122Z,100007.00
2023-04-23T22:55:09.061Z,100007.00
2023-04-23T22:57:36.188Z,99992.00
2023-04-23T23:00:05.184Z,99982.00
2023-04-23T23:02:32.058Z,99976.00
2023-04-23T23:04:58.906Z,99973.00
2023-04-23T23:07:25.762Z,99968.00
2023-04-23T23:09:52.501Z,99971.00
2023-04-23T23:12:19.238Z,99965.00
2023-04-23T23:14:45.988Z,99953.00
2023-04-23T23:17:12.727Z,99951.00
2023-04-23T23:19:39.532Z,99948.00
2023-04-23T23:22:06.492Z,99951.00
2023-04-23T23:24:33.241Z,99951.00
2023-04-23T23:26:59.977Z,99941.00
2023-04-23T23:29:26.742Z,99932.00
2023-04-23T23:31:53.533Z,99927.00
2023-04-23T23:34:20.460Z,99936.00
2023-04-23T23:36:49.740Z,99928.00
2023-04-23T23:39:19.095Z,99919.00
2023-04-23T23:41:47.117Z,99926.00
2023-04-23T23:44:14.461Z,99911.00
2023-04-23T23:46:41.576Z,99916.00
2023-04-23T23:49:08.434Z,99915.00
2023-04-23T23:51:35.504Z,99911.00
2023-04-23T23:54:02.238Z,99905.00
2023-04-23T23:56:29.060Z,99902.00
2023-04-23T23:58:55.789Z,99897.00
